sensor_id;sensor_type;location;lat;lon;timestamp;P1;durP1;ratioP1;P2;durP2;ratioP2
22904;SDS011;11619;50.140;8.518;2022-07-10T00:02:08;3.53;;;1.70;;
22904;SDS011;11619;50.140;8.518;2022-07-10T00:04:34;5.10;;;1.77;;
22904;SDS011;11619;50.140;8.518;2022-07-10T00:07:01;4.28;;;1.67;;
22904;SDS011;11619;50.140;8.518;2022-07-10T00:09:28;2.83;;;1.77;;
22904;SDS011;11619;50.140;8.518;2022-07-10T00:11:54;1.83;;;1.63;;
22904;SDS011;11619;50.140;8.518;2022-07-10T00:14:21;2.45;;;1.60;;
22904;SDS011;11619;50.140;8.518;2022-07-10T00:16:47;5.95;;;1.90;;
22904;SDS011;11619;50.140;8.518;2022-07-10T00:19:14;3.63;;;1.90;;
22904;SDS011;11619;50.140;8.518;2022-07-10T00:21:40;4.25;;;1.45;;
22904;SDS011;11619;50.140;8.518;2022-07-10T00:24:07;3.10;;;1.70;;
22904;SDS011;11619;50.140;8.518;2022-07-10T00:26:36;2.88;;;1.98;;
22904;SDS011;11619;50.140;8.518;2022-07-10T00:29:02;3.85;;;1.65;;
22904;SDS011;11619;50.140;8.518;2022-07-10T00:31:29;3.67;;;1.50;;
22904;SDS011;11619;50.140;8.518;2022-07-10T00:33:56;3.42;;;1.88;;
22904;SDS011;11619;50.140;8.518;2022-07-10T00:36:22;4.82;;;1.98;;
22904;SDS011;11619;50.140;8.518;2022-07-10T00:38:49;2.20;;;1.40;;
22904;SDS011;11619;50.140;8.518;2022-07-10T00:41:15;5.90;;;1.92;;
22904;SDS011;11619;50.140;8.518;2022-07-10T00:43:52;3.95;;;1.90;;
22904;SDS011;11619;50.140;8.518;2022-07-10T00:46:23;2.72;;;1.58;;
22904;SDS011;11619;50.140;8.518;2022-07-10T00:48:52;3.22;;;1.73;;
22904;SDS011;11619;50.140;8.518;2022-07-10T00:51:26;4.57;;;1.67;;
22904;SDS011;11619;50.140;8.518;2022-07-10T00:53:54;2.92;;;2.05;;
22904;SDS011;11619;50.140;8.518;2022-07-10T00:56:23;5.13;;;1.67;;
22904;SDS011;11619;50.140;8.518;2022-07-10T00:58:51;4.60;;;1.70;;
22904;SDS011;11619;50.140;8.518;2022-07-10T01:01:18;5.38;;;1.60;;
22904;SDS011;11619;50.140;8.518;2022-07-10T01:03:45;8.07;;;1.90;;
22904;SDS011;11619;50.140;8.518;2022-07-10T01:06:12;2.55;;;1.60;;
22904;SDS011;11619;50.140;8.518;2022-07-10T01:08:40;3.63;;;1.80;;
22904;SDS011;11619;50.140;8.518;2022-07-10T01:11:08;3.05;;;1.38;;
22904;SDS011;11619;50.140;8.518;2022-07-10T01:13:35;3.40;;;1.90;;
22904;SDS011;11619;50.140;8.518;2022-07-10T01:16:02;4.68;;;1.52;;
22904;SDS011;11619;50.140;8.518;2022-07-10T01:18:29;2.63;;;1.55;;
22904;SDS011;11619;50.140;8.518;2022-07-10T01:20:56;4.75;;;1.77;;
22904;SDS011;11619;50.140;8.518;2022-07-10T01:23:24;3.85;;;1.58;;
22904;SDS011;11619;50.140;8.518;2022-07-10T01:25:50;2.92;;;1.65;;
22904;SDS011;11619;50.140;8.518;2022-07-10T01:28:17;3.38;;;1.77;;
22904;SDS011;11619;50.140;8.518;2022-07-10T01:30:44;2.65;;;1.60;;
22904;SDS011;11619;50.140;8.518;2022-07-10T01:33:10;2.17;;;1.33;;
22904;SDS011;11619;50.140;8.518;2022-07-10T01:35:37;1.92;;;1.33;;
22904;SDS011;11619;50.140;8.518;2022-07-10T01:38:04;3.78;;;1.70;;
22904;SDS011;11619;50.140;8.518;2022-07-10T01:40:31;4.38;;;1.77;;
22904;SDS011;11619;50.140;8.518;2022-07-10T01:42:57;5.07;;;1.75;;
22904;SDS011;11619;50.140;8.518;2022-07-10T01:45:24;2.83;;;1.70;;
22904;SDS011;11619;50.140;8.518;2022-07-10T01:47:51;3.38;;;1.65;;
22904;SDS011;11619;50.140;8.518;2022-07-10T01:50:17;2.58;;;1.67;;
22904;SDS011;11619;50.140;8.518;2022-07-10T01:52:44;4.45;;;1.77;;
22904;SDS011;11619;50.140;8.518;2022-07-10T01:55:10;3.78;;;1.50;;
22904;SDS011;11619;50.140;8.518;2022-07-10T01:57:37;4.65;;;1.20;;
22904;SDS011;11619;50.140;8.518;2022-07-10T02:00:04;4.85;;;1.50;;
22904;SDS011;11619;50.140;8.518;2022-07-10T02:02:30;3.22;;;1.50;;
22904;SDS011;11619;50.140;8.518;2022-07-10T02:04:57;4.53;;;1.58;;
22904;SDS011;11619;50.140;8.518;2022-07-10T02:07:23;6.45;;;1.30;;
22904;SDS011;11619;50.140;8.518;2022-07-10T02:09:52;4.82;;;1.80;;
22904;SDS011;11619;50.140;8.518;2022-07-10T02:12:18;2.38;;;1.23;;
22904;SDS011;11619;50.140;8.518;2022-07-10T02:14:45;5.30;;;1.90;;
22904;SDS011;11619;50.140;8.518;2022-07-10T02:17:11;4.80;;;1.45;;
22904;SDS011;11619;50.140;8.518;2022-07-10T02:19:38;5.47;;;1.27;;
22904;SDS011;11619;50.140;8.518;2022-07-10T02:22:08;5.13;;;1.85;;
22904;SDS011;11619;50.140;8.518;2022-07-10T02:24:34;5.80;;;1.48;;
22904;SDS011;11619;50.140;8.518;2022-07-10T02:27:02;4.88;;;1.45;;
22904;SDS011;11619;50.140;8.518;2022-07-10T02:29:29;6.38;;;1.73;;
22904;SDS011;11619;50.140;8.518;2022-07-10T02:31:58;2.22;;;1.38;;
22904;SDS011;11619;50.140;8.518;2022-07-10T02:34:25;3.42;;;1.42;;
22904;SDS011;11619;50.140;8.518;2022-07-10T02:36:52;3.92;;;1.58;;
22904;SDS011;11619;50.140;8.518;2022-07-10T02:39:19;2.10;;;1.40;;
22904;SDS011;11619;50.140;8.518;2022-07-10T02:41:45;2.63;;;1.30;;
22904;SDS011;11619;50.140;8.518;2022-07-10T02:44:11;3.38;;;1.30;;
22904;SDS011;11619;50.140;8.518;2022-07-10T02:46:38;4.90;;;1.83;;
22904;SDS011;11619;50.140;8.518;2022-07-10T02:49:05;3.88;;;1.40;;
22904;SDS011;11619;50.140;8.518;2022-07-10T02:51:31;4.60;;;1.52;;
22904;SDS011;11619;50.140;8.518;2022-07-10T02:54:01;5.88;;;1.60;;
22904;SDS011;11619;50.140;8.518;2022-07-10T02:56:31;2.95;;;1.30;;
22904;SDS011;11619;50.140;8.518;2022-07-10T02:58:58;2.63;;;1.40;;
22904;SDS011;11619;50.140;8.518;2022-07-10T03:01:25;4.32;;;1.70;;
22904;SDS011;11619;50.140;8.518;2022-07-10T03:03:54;2.63;;;1.42;;
22904;SDS011;11619;50.140;8.518;2022-07-10T03:06:20;3.53;;;1.40;;
22904;SDS011;11619;50.140;8.518;2022-07-10T03:08:47;4.93;;;1.38;;
22904;SDS011;11619;50.140;8.518;2022-07-10T03:11:20;3.28;;;1.42;;
22904;SDS011;11619;50.140;8.518;2022-07-10T03:13:47;4.50;;;1.70;;
22904;SDS011;11619;50.140;8.518;2022-07-10T03:16:16;3.20;;;1.75;;
22904;SDS011;11619;50.140;8.518;2022-07-10T03:18:43;4.35;;;1.30;;
22904;SDS011;11619;50.140;8.518;2022-07-10T03:21:11;5.68;;;1.70;;
22904;SDS011;11619;50.140;8.518;2022-07-10T03:23:38;2.78;;;1.55;;
22904;SDS011;11619;50.140;8.518;2022-07-10T03:26:06;2.45;;;1.40;;
22904;SDS011;11619;50.140;8.518;2022-07-10T03:28:35;1.58;;;1.33;;
22904;SDS011;11619;50.140;8.518;2022-07-10T03:31:02;2.75;;;1.50;;
22904;SDS011;11619;50.140;8.518;2022-07-10T03:33:29;3.95;;;1.70;;
22904;SDS011;11619;50.140;8.518;2022-07-10T03:35:55;7.05;;;2.25;;
22904;SDS011;11619;50.140;8.518;2022-07-10T03:38:22;5.68;;;1.50;;
22904;SDS011;11619;50.140;8.518;2022-07-10T03:40:48;4.70;;;1.52;;
22904;SDS011;11619;50.140;8.518;2022-07-10T03:43:15;2.88;;;1.10;;
22904;SDS011;11619;50.140;8.518;2022-07-10T03:45:41;4.82;;;1.55;;
22904;SDS011;11619;50.140;8.518;2022-07-10T03:48:08;3.38;;;1.25;;
22904;SDS011;11619;50.140;8.518;2022-07-10T03:50:34;3.10;;;1.30;;
22904;SDS011;11619;50.140;8.518;2022-07-10T03:53:00;4.78;;;1.40;;
22904;SDS011;11619;50.140;8.518;2022-07-10T03:55:27;1.77;;;1.50;;
22904;SDS011;11619;50.140;8.518;2022-07-10T03:57:53;4.25;;;1.30;;
22904;SDS011;11619;50.140;8.518;2022-07-10T04:00:20;3.58;;;1.65;;
22904;SDS011;11619;50.140;8.518;2022-07-10T04:02:57;3.45;;;1.52;;
22904;SDS011;11619;50.140;8.518;2022-07-10T04:05:28;3.10;;;1.35;;
22904;SDS011;11619;50.140;8.518;2022-07-10T04:07:55;3.30;;;1.50;;
22904;SDS011;11619;50.140;8.518;2022-07-10T04:10:23;3.00;;;1.50;;
22904;SDS011;11619;50.140;8.518;2022-07-10T04:12:50;2.65;;;1.42;;
22904;SDS011;11619;50.140;8.518;2022-07-10T04:15:17;3.78;;;1.83;;
22904;SDS011;11619;50.140;8.518;2022-07-10T04:17:45;3.17;;;1.55;;
22904;SDS011;11619;50.140;8.518;2022-07-10T04:20:11;3.30;;;1.40;;
22904;SDS011;11619;50.140;8.518;2022-07-10T04:22:38;3.42;;;1.20;;
22904;SDS011;11619;50.140;8.518;2022-07-10T04:25:05;3.38;;;1.42;;
22904;SDS011;11619;50.140;8.518;2022-07-10T04:27:32;3.58;;;1.45;;
22904;SDS011;11619;50.140;8.518;2022-07-10T04:29:59;6.57;;;1.98;;
22904;SDS011;11619;50.140;8.518;2022-07-10T04:32:25;4.35;;;1.20;;
22904;SDS011;11619;50.140;8.518;2022-07-10T04:34:54;3.58;;;1.05;;
22904;SDS011;11619;50.140;8.518;2022-07-10T04:37:21;3.13;;;1.10;;
22904;SDS011;11619;50.140;8.518;2022-07-10T04:39:47;5.28;;;1.50;;
22904;SDS011;11619;50.140;8.518;2022-07-10T04:42:14;2.30;;;1.00;;
22904;SDS011;11619;50.140;8.518;2022-07-10T04:44:40;2.03;;;1.00;;
22904;SDS011;11619;50.140;8.518;2022-07-10T04:47:06;2.78;;;1.50;;
22904;SDS011;11619;50.140;8.518;2022-07-10T04:49:33;3.35;;;1.52;;
22904;SDS011;11619;50.140;8.518;2022-07-10T04:52:00;2.17;;;1.13;;
22904;SDS011;11619;50.140;8.518;2022-07-10T04:54:26;2.33;;;1.10;;
22904;SDS011;11619;50.140;8.518;2022-07-10T04:56:52;2.83;;;1.10;;
22904;SDS011;11619;50.140;8.518;2022-07-10T04:59:19;3.72;;;1.45;;
22904;SDS011;11619;50.140;8.518;2022-07-10T05:01:45;1.95;;;1.20;;
22904;SDS011;11619;50.140;8.518;2022-07-10T05:04:12;3.95;;;1.17;;
22904;SDS011;11619;50.140;8.518;2022-07-10T05:06:38;3.80;;;1.17;;
22904;SDS011;11619;50.140;8.518;2022-07-10T05:09:05;2.58;;;0.98;;
22904;SDS011;11619;50.140;8.518;2022-07-10T05:11:32;1.50;;;0.80;;
22904;SDS011;11619;50.140;8.518;2022-07-10T05:13:58;4.18;;;1.38;;
22904;SDS011;11619;50.140;8.518;2022-07-10T05:16:25;2.58;;;1.00;;
22904;SDS011;11619;50.140;8.518;2022-07-10T05:18:51;4.25;;;1.20;;
22904;SDS011;11619;50.140;8.518;2022-07-10T05:21:18;4.35;;;1.17;;
22904;SDS011;11619;50.140;8.518;2022-07-10T05:23:44;5.80;;;1.58;;
22904;SDS011;11619;50.140;8.518;2022-07-10T05:26:11;3.92;;;1.40;;
22904;SDS011;11619;50.140;8.518;2022-07-10T05:28:37;2.85;;;1.38;;
22904;SDS011;11619;50.140;8.518;2022-07-10T05:31:05;3.72;;;1.42;;
22904;SDS011;11619;50.140;8.518;2022-07-10T05:33:31;3.40;;;1.20;;
22904;SDS011;11619;50.140;8.518;2022-07-10T05:35:58;5.35;;;1.42;;
22904;SDS011;11619;50.140;8.518;2022-07-10T05:38:25;5.50;;;1.52;;
22904;SDS011;11619;50.140;8.518;2022-07-10T05:40:51;6.35;;;1.30;;
22904;SDS011;11619;50.140;8.518;2022-07-10T05:43:19;1.95;;;0.88;;
22904;SDS011;11619;50.140;8.518;2022-07-10T05:45:46;2.53;;;1.00;;
22904;SDS011;11619;50.140;8.518;2022-07-10T05:48:24;4.63;;;1.60;;
22904;SDS011;11619;50.140;8.518;2022-07-10T05:50:50;2.25;;;0.95;;
22904;SDS011;11619;50.140;8.518;2022-07-10T05:53:16;2.10;;;1.10;;
22904;SDS011;11619;50.140;8.518;2022-07-10T05:55:48;2.35;;;0.90;;
22904;SDS011;11619;50.140;8.518;2022-07-10T05:58:15;3.90;;;1.15;;
22904;SDS011;11619;50.140;8.518;2022-07-10T06:00:41;5.00;;;0.95;;
22904;SDS011;11619;50.140;8.518;2022-07-10T06:03:09;2.47;;;0.93;;
22904;SDS011;11619;50.140;8.518;2022-07-10T06:05:36;3.60;;;1.67;;
22904;SDS011;11619;50.140;8.518;2022-07-10T06:08:03;2.95;;;0.95;;
22904;SDS011;11619;50.140;8.518;2022-07-10T06:10:30;2.00;;;1.13;;
22904;SDS011;11619;50.140;8.518;2022-07-10T06:12:56;2.85;;;0.95;;
22904;SDS011;11619;50.140;8.518;2022-07-10T06:15:23;4.60;;;1.30;;
22904;SDS011;11619;50.140;8.518;2022-07-10T06:17:49;1.52;;;0.93;;
22904;SDS011;11619;50.140;8.518;2022-07-10T06:20:16;4.95;;;1.00;;
22904;SDS011;11619;50.140;8.518;2022-07-10T06:22:43;2.17;;;1.05;;
22904;SDS011;11619;50.140;8.518;2022-07-10T06:25:15;4.65;;;1.33;;
22904;SDS011;11619;50.140;8.518;2022-07-10T06:27:42;4.00;;;1.45;;
22904;SDS011;11619;50.140;8.518;2022-07-10T06:30:08;2.05;;;1.10;;
22904;SDS011;11619;50.140;8.518;2022-07-10T06:32:35;1.92;;;0.93;;
22904;SDS011;11619;50.140;8.518;2022-07-10T06:35:02;2.42;;;0.80;;
22904;SDS011;11619;50.140;8.518;2022-07-10T06:37:30;2.08;;;1.08;;
22904;SDS011;11619;50.140;8.518;2022-07-10T06:39:57;2.58;;;1.10;;
22904;SDS011;11619;50.140;8.518;2022-07-10T06:42:23;5.18;;;1.33;;
22904;SDS011;11619;50.140;8.518;2022-07-10T06:44:50;4.30;;;0.82;;
22904;SDS011;11619;50.140;8.518;2022-07-10T06:47:17;4.07;;;1.08;;
22904;SDS011;11619;50.140;8.518;2022-07-10T06:50:07;3.58;;;1.10;;
22904;SDS011;11619;50.140;8.518;2022-07-10T06:52:34;3.05;;;0.95;;
22904;SDS011;11619;50.140;8.518;2022-07-10T06:55:02;1.92;;;0.95;;
22904;SDS011;11619;50.140;8.518;2022-07-10T06:57:29;2.20;;;0.80;;
22904;SDS011;11619;50.140;8.518;2022-07-10T06:59:55;2.45;;;1.10;;
22904;SDS011;11619;50.140;8.518;2022-07-10T07:02:22;3.60;;;1.10;;
22904;SDS011;11619;50.140;8.518;2022-07-10T07:04:49;3.25;;;1.00;;
22904;SDS011;11619;50.140;8.518;2022-07-10T07:07:15;2.83;;;1.05;;
22904;SDS011;11619;50.140;8.518;2022-07-10T07:12:16;1.73;;;0.70;;
22904;SDS011;11619;50.140;8.518;2022-07-10T07:14:44;2.47;;;1.15;;
22904;SDS011;11619;50.140;8.518;2022-07-10T07:17:10;2.33;;;1.08;;
22904;SDS011;11619;50.140;8.518;2022-07-10T07:19:38;1.23;;;0.70;;
22904;SDS011;11619;50.140;8.518;2022-07-10T07:22:23;2.53;;;0.98;;
22904;SDS011;11619;50.140;8.518;2022-07-10T07:25:09;2.92;;;1.08;;
22904;SDS011;11619;50.140;8.518;2022-07-10T07:27:37;2.05;;;0.70;;
22904;SDS011;11619;50.140;8.518;2022-07-10T07:30:05;1.88;;;0.93;;
22904;SDS011;11619;50.140;8.518;2022-07-10T07:32:33;5.63;;;1.30;;
22904;SDS011;11619;50.140;8.518;2022-07-10T07:35:00;2.22;;;0.85;;
22904;SDS011;11619;50.140;8.518;2022-07-10T07:37:40;3.72;;;1.00;;
22904;SDS011;11619;50.140;8.518;2022-07-10T07:40:12;2.63;;;1.02;;
22904;SDS011;11619;50.140;8.518;2022-07-10T07:42:42;4.75;;;1.38;;
22904;SDS011;11619;50.140;8.518;2022-07-10T07:45:08;4.10;;;1.60;;
22904;SDS011;11619;50.140;8.518;2022-07-10T07:47:45;3.88;;;1.20;;
22904;SDS011;11619;50.140;8.518;2022-07-10T07:50:13;2.92;;;1.02;;
22904;SDS011;11619;50.140;8.518;2022-07-10T07:52:40;3.85;;;0.90;;
22904;SDS011;11619;50.140;8.518;2022-07-10T07:55:07;4.45;;;1.00;;
22904;SDS011;11619;50.140;8.518;2022-07-10T07:57:34;1.00;;;0.70;;
22904;SDS011;11619;50.140;8.518;2022-07-10T08:00:00;3.22;;;0.80;;
22904;SDS011;11619;50.140;8.518;2022-07-10T08:02:27;3.30;;;1.05;;
22904;SDS011;11619;50.140;8.518;2022-07-10T08:04:56;1.73;;;0.90;;
22904;SDS011;11619;50.140;8.518;2022-07-10T08:07:23;1.63;;;0.90;;
22904;SDS011;11619;50.140;8.518;2022-07-10T08:09:49;4.10;;;1.10;;
22904;SDS011;11619;50.140;8.518;2022-07-10T08:12:15;4.55;;;1.13;;
22904;SDS011;11619;50.140;8.518;2022-07-10T08:14:42;2.63;;;1.10;;
22904;SDS011;11619;50.140;8.518;2022-07-10T08:17:08;5.05;;;1.23;;
22904;SDS011;11619;50.140;8.518;2022-07-10T08:19:35;3.70;;;1.40;;
22904;SDS011;11619;50.140;8.518;2022-07-10T08:22:02;2.42;;;1.05;;
22904;SDS011;11619;50.140;8.518;2022-07-10T08:24:28;3.40;;;0.80;;
22904;SDS011;11619;50.140;8.518;2022-07-10T08:26:55;2.72;;;0.98;;
22904;SDS011;11619;50.140;8.518;2022-07-10T08:29:21;2.38;;;1.00;;
22904;SDS011;11619;50.140;8.518;2022-07-10T08:31:48;3.40;;;1.30;;
22904;SDS011;11619;50.140;8.518;2022-07-10T08:34:14;2.58;;;1.17;;
22904;SDS011;11619;50.140;8.518;2022-07-10T08:36:40;3.65;;;1.10;;
22904;SDS011;11619;50.140;8.518;2022-07-10T08:39:14;4.75;;;1.08;;
22904;SDS011;11619;50.140;8.518;2022-07-10T08:41:43;2.90;;;1.10;;
22904;SDS011;11619;50.140;8.518;2022-07-10T08:44:11;4.70;;;1.17;;
22904;SDS011;11619;50.140;8.518;2022-07-10T08:46:37;3.92;;;1.27;;
22904;SDS011;11619;50.140;8.518;2022-07-10T08:49:05;6.20;;;1.83;;
22904;SDS011;11619;50.140;8.518;2022-07-10T08:51:36;5.50;;;1.70;;
22904;SDS011;11619;50.140;8.518;2022-07-10T08:54:07;4.50;;;1.42;;
22904;SDS011;11619;50.140;8.518;2022-07-10T08:56:34;7.10;;;1.30;;
22904;SDS011;11619;50.140;8.518;2022-07-10T08:59:02;5.93;;;1.40;;
22904;SDS011;11619;50.140;8.518;2022-07-10T09:01:30;3.95;;;1.42;;
22904;SDS011;11619;50.140;8.518;2022-07-10T09:03:57;3.53;;;1.02;;
22904;SDS011;11619;50.140;8.518;2022-07-10T09:06:24;5.10;;;1.80;;
22904;SDS011;11619;50.140;8.518;2022-07-10T09:09:06;2.65;;;1.25;;
22904;SDS011;11619;50.140;8.518;2022-07-10T09:11:32;3.92;;;1.48;;
22904;SDS011;11619;50.140;8.518;2022-07-10T09:14:00;3.60;;;1.60;;
22904;SDS011;11619;50.140;8.518;2022-07-10T09:16:32;4.03;;;1.50;;
22904;SDS011;11619;50.140;8.518;2022-07-10T09:21:47;2.78;;;1.38;;
22904;SDS011;11619;50.140;8.518;2022-07-10T09:24:35;2.95;;;1.40;;
22904;SDS011;11619;50.140;8.518;2022-07-10T09:27:12;2.83;;;1.15;;
22904;SDS011;11619;50.140;8.518;2022-07-10T09:29:50;3.35;;;1.02;;
22904;SDS011;11619;50.140;8.518;2022-07-10T09:32:24;2.67;;;1.30;;
22904;SDS011;11619;50.140;8.518;2022-07-10T09:34:52;2.17;;;1.10;;
22904;SDS011;11619;50.140;8.518;2022-07-10T09:37:39;4.53;;;1.60;;
22904;SDS011;11619;50.140;8.518;2022-07-10T09:40:07;6.35;;;2.00;;
22904;SDS011;11619;50.140;8.518;2022-07-10T09:42:41;3.95;;;1.30;;
22904;SDS011;11619;50.140;8.518;2022-07-10T09:45:14;3.45;;;1.00;;
22904;SDS011;11619;50.140;8.518;2022-07-10T09:47:46;2.10;;;1.20;;
22904;SDS011;11619;50.140;8.518;2022-07-10T09:52:53;3.70;;;1.13;;
22904;SDS011;11619;50.140;8.518;2022-07-10T09:55:28;3.17;;;1.30;;
22904;SDS011;11619;50.140;8.518;2022-07-10T09:57:57;1.90;;;1.40;;
22904;SDS011;11619;50.140;8.518;2022-07-10T10:00:26;4.95;;;1.30;;
22904;SDS011;11619;50.140;8.518;2022-07-10T10:02:55;2.75;;;1.00;;
22904;SDS011;11619;50.140;8.518;2022-07-10T10:05:24;2.53;;;1.20;;
22904;SDS011;11619;50.140;8.518;2022-07-10T10:07:55;3.20;;;1.35;;
22904;SDS011;11619;50.140;8.518;2022-07-10T10:10:21;7.45;;;1.70;;
22904;SDS011;11619;50.140;8.518;2022-07-10T10:12:48;4.10;;;1.58;;
22904;SDS011;11619;50.140;8.518;2022-07-10T10:15:18;4.10;;;1.45;;
22904;SDS011;11619;50.140;8.518;2022-07-10T10:17:46;5.50;;;1.52;;
22904;SDS011;11619;50.140;8.518;2022-07-10T10:20:14;5.97;;;1.95;;
22904;SDS011;11619;50.140;8.518;2022-07-10T10:22:59;5.10;;;1.70;;
22904;SDS011;11619;50.140;8.518;2022-07-10T10:25:26;2.80;;;1.58;;
22904;SDS011;11619;50.140;8.518;2022-07-10T10:27:55;3.72;;;1.40;;
22904;SDS011;11619;50.140;8.518;2022-07-10T10:30:22;7.22;;;1.30;;
22904;SDS011;11619;50.140;8.518;2022-07-10T10:32:49;4.15;;;1.13;;
22904;SDS011;11619;50.140;8.518;2022-07-10T10:38:08;5.47;;;1.40;;
22904;SDS011;11619;50.140;8.518;2022-07-10T10:40:34;3.03;;;1.20;;
22904;SDS011;11619;50.140;8.518;2022-07-10T10:45:50;4.07;;;1.45;;
22904;SDS011;11619;50.140;8.518;2022-07-10T10:48:18;5.15;;;1.92;;
22904;SDS011;11619;50.140;8.518;2022-07-10T10:51:04;6.22;;;1.30;;
22904;SDS011;11619;50.140;8.518;2022-07-10T10:53:30;4.63;;;1.48;;
22904;SDS011;11619;50.140;8.518;2022-07-10T10:58:43;2.85;;;1.30;;
22904;SDS011;11619;50.140;8.518;2022-07-10T11:06:41;2.42;;;1.38;;
22904;SDS011;11619;50.140;8.518;2022-07-10T11:12:07;2.03;;;1.02;;
22904;SDS011;11619;50.140;8.518;2022-07-10T11:14:55;2.15;;;1.00;;
22904;SDS011;11619;50.140;8.518;2022-07-10T11:17:26;3.17;;;1.48;;
22904;SDS011;11619;50.140;8.518;2022-07-10T11:19:53;7.30;;;1.50;;
22904;SDS011;11619;50.140;8.518;2022-07-10T11:22:30;3.72;;;1.20;;
22904;SDS011;11619;50.140;8.518;2022-07-10T11:25:12;2.20;;;1.10;;
22904;SDS011;11619;50.140;8.518;2022-07-10T11:28:06;1.48;;;1.13;;
22904;SDS011;11619;50.140;8.518;2022-07-10T11:30:44;3.55;;;1.45;;
22904;SDS011;11619;50.140;8.518;2022-07-10T11:33:12;2.92;;;1.17;;
22904;SDS011;11619;50.140;8.518;2022-07-10T11:35:39;3.42;;;1.48;;
22904;SDS011;11619;50.140;8.518;2022-07-10T11:38:06;2.97;;;1.17;;
22904;SDS011;11619;50.140;8.518;2022-07-10T11:40:36;3.35;;;1.45;;
22904;SDS011;11619;50.140;8.518;2022-07-10T11:43:03;3.20;;;1.27;;
22904;SDS011;11619;50.140;8.518;2022-07-10T11:45:35;6.70;;;1.38;;
22904;SDS011;11619;50.140;8.518;2022-07-10T11:48:04;3.15;;;1.20;;
22904;SDS011;11619;50.140;8.518;2022-07-10T11:50:35;4.13;;;1.10;;
22904;SDS011;11619;50.140;8.518;2022-07-10T11:53:03;3.67;;;1.55;;
22904;SDS011;11619;50.140;8.518;2022-07-10T11:55:30;2.78;;;1.15;;
22904;SDS011;11619;50.140;8.518;2022-07-10T11:58:14;1.95;;;1.20;;
22904;SDS011;11619;50.140;8.518;2022-07-10T12:00:56;6.00;;;1.27;;
22904;SDS011;11619;50.140;8.518;2022-07-10T12:03:28;4.38;;;1.20;;
22904;SDS011;11619;50.140;8.518;2022-07-10T12:05:55;5.10;;;1.00;;
22904;SDS011;11619;50.140;8.518;2022-07-10T12:08:27;2.90;;;1.13;;
22904;SDS011;11619;50.140;8.518;2022-07-10T12:10:53;2.58;;;1.10;;
22904;SDS011;11619;50.140;8.518;2022-07-10T12:13:20;1.15;;;0.85;;
22904;SDS011;11619;50.140;8.518;2022-07-10T12:15:47;1.95;;;0.90;;
22904;SDS011;11619;50.140;8.518;2022-07-10T12:18:20;3.28;;;1.15;;
22904;SDS011;11619;50.140;8.518;2022-07-10T12:20:48;2.70;;;1.10;;
22904;SDS011;11619;50.140;8.518;2022-07-10T12:23:16;3.78;;;1.20;;
22904;SDS011;11619;50.140;8.518;2022-07-10T12:25:44;2.97;;;0.80;;
22904;SDS011;11619;50.140;8.518;2022-07-10T12:28:12;3.45;;;1.10;;
22904;SDS011;11619;50.140;8.518;2022-07-10T12:30:39;4.10;;;1.35;;
22904;SDS011;11619;50.140;8.518;2022-07-10T12:33:11;3.15;;;1.27;;
22904;SDS011;11619;50.140;8.518;2022-07-10T12:38:23;3.83;;;1.55;;
22904;SDS011;11619;50.140;8.518;2022-07-10T12:41:05;2.50;;;1.20;;
22904;SDS011;11619;50.140;8.518;2022-07-10T12:43:37;2.42;;;1.05;;
22904;SDS011;11619;50.140;8.518;2022-07-10T12:48:43;1.67;;;0.82;;
22904;SDS011;11619;50.140;8.518;2022-07-10T12:51:21;2.38;;;1.00;;
22904;SDS011;11619;50.140;8.518;2022-07-10T12:53:48;2.50;;;0.98;;
22904;SDS011;11619;50.140;8.518;2022-07-10T12:59:01;3.15;;;0.95;;
22904;SDS011;11619;50.140;8.518;2022-07-10T13:01:40;1.80;;;0.70;;
22904;SDS011;11619;50.140;8.518;2022-07-10T13:04:07;2.42;;;1.30;;
22904;SDS011;11619;50.140;8.518;2022-07-10T13:06:35;3.13;;;1.02;;
22904;SDS011;11619;50.140;8.518;2022-07-10T13:09:03;3.53;;;1.10;;
22904;SDS011;11619;50.140;8.518;2022-07-10T13:11:44;2.08;;;1.00;;
22904;SDS011;11619;50.140;8.518;2022-07-10T13:14:10;3.75;;;1.13;;
22904;SDS011;11619;50.140;8.518;2022-07-10T13:16:37;2.28;;;1.00;;
22904;SDS011;11619;50.140;8.518;2022-07-10T13:19:03;1.85;;;1.08;;
22904;SDS011;11619;50.140;8.518;2022-07-10T13:21:30;3.08;;;1.00;;
22904;SDS011;11619;50.140;8.518;2022-07-10T13:23:56;1.67;;;0.82;;
22904;SDS011;11619;50.140;8.518;2022-07-10T13:26:23;0.95;;;0.47;;
22904;SDS011;11619;50.140;8.518;2022-07-10T13:28:49;1.30;;;1.05;;
22904;SDS011;11619;50.140;8.518;2022-07-10T13:31:16;1.80;;;0.85;;
22904;SDS011;11619;50.140;8.518;2022-07-10T13:33:42;1.35;;;0.85;;
22904;SDS011;11619;50.140;8.518;2022-07-10T13:36:09;2.75;;;1.08;;
22904;SDS011;11619;50.140;8.518;2022-07-10T13:38:35;4.20;;;0.80;;
22904;SDS011;11619;50.140;8.518;2022-07-10T13:41:03;1.30;;;0.80;;
22904;SDS011;11619;50.140;8.518;2022-07-10T13:43:30;1.67;;;0.70;;
22904;SDS011;11619;50.140;8.518;2022-07-10T13:45:57;1.60;;;0.80;;
22904;SDS011;11619;50.140;8.518;2022-07-10T13:48:24;2.72;;;0.95;;
22904;SDS011;11619;50.140;8.518;2022-07-10T13:50:52;1.42;;;0.80;;
22904;SDS011;11619;50.140;8.518;2022-07-10T13:53:19;2.28;;;0.93;;
22904;SDS011;11619;50.140;8.518;2022-07-10T13:55:46;1.85;;;0.80;;
22904;SDS011;11619;50.140;8.518;2022-07-10T13:58:13;3.83;;;1.13;;
22904;SDS011;11619;50.140;8.518;2022-07-10T14:00:40;1.88;;;0.73;;
22904;SDS011;11619;50.140;8.518;2022-07-10T14:03:07;2.65;;;0.80;;
22904;SDS011;11619;50.140;8.518;2022-07-10T14:05:33;1.33;;;0.60;;
22904;SDS011;11619;50.140;8.518;2022-07-10T14:08:00;0.95;;;0.80;;
22904;SDS011;11619;50.140;8.518;2022-07-10T14:10:27;1.70;;;0.65;;
22904;SDS011;11619;50.140;8.518;2022-07-10T14:12:54;0.63;;;0.57;;
22904;SDS011;11619;50.140;8.518;2022-07-10T14:15:21;2.40;;;0.82;;
22904;SDS011;11619;50.140;8.518;2022-07-10T14:17:48;1.17;;;0.60;;
22904;SDS011;11619;50.140;8.518;2022-07-10T14:20:16;0.77;;;0.50;;
22904;SDS011;11619;50.140;8.518;2022-07-10T14:22:43;0.43;;;0.43;;
22904;SDS011;11619;50.140;8.518;2022-07-10T14:25:12;2.50;;;0.70;;
22904;SDS011;11619;50.140;8.518;2022-07-10T14:27:39;0.93;;;0.55;;
22904;SDS011;11619;50.140;8.518;2022-07-10T14:30:06;1.85;;;0.82;;
22904;SDS011;11619;50.140;8.518;2022-07-10T14:32:33;1.25;;;0.93;;
22904;SDS011;11619;50.140;8.518;2022-07-10T14:35:00;1.38;;;0.57;;
22904;SDS011;11619;50.140;8.518;2022-07-10T14:37:26;1.30;;;0.60;;
22904;SDS011;11619;50.140;8.518;2022-07-10T14:39:53;1.15;;;0.60;;
22904;SDS011;11619;50.140;8.518;2022-07-10T14:42:19;2.30;;;0.93;;
22904;SDS011;11619;50.140;8.518;2022-07-10T14:44:46;2.10;;;0.70;;
22904;SDS011;11619;50.140;8.518;2022-07-10T14:47:13;0.88;;;0.63;;
22904;SDS011;11619;50.140;8.518;2022-07-10T14:49:41;2.00;;;0.80;;
22904;SDS011;11619;50.140;8.518;2022-07-10T14:52:08;0.80;;;0.70;;
22904;SDS011;11619;50.140;8.518;2022-07-10T14:54:34;2.10;;;0.90;;
22904;SDS011;11619;50.140;8.518;2022-07-10T14:57:01;3.28;;;0.70;;
22904;SDS011;11619;50.140;8.518;2022-07-10T14:59:29;1.40;;;0.85;;
22904;SDS011;11619;50.140;8.518;2022-07-10T15:02:05;1.35;;;0.95;;
22904;SDS011;11619;50.140;8.518;2022-07-10T15:04:32;2.80;;;0.75;;
22904;SDS011;11619;50.140;8.518;2022-07-10T15:06:58;0.70;;;0.52;;
22904;SDS011;11619;50.140;8.518;2022-07-10T15:09:25;2.70;;;0.73;;
22904;SDS011;11619;50.140;8.518;2022-07-10T15:11:51;4.78;;;0.70;;
22904;SDS011;11619;50.140;8.518;2022-07-10T15:14:19;1.60;;;0.75;;
22904;SDS011;11619;50.140;8.518;2022-07-10T15:16:47;0.85;;;0.70;;
22904;SDS011;11619;50.140;8.518;2022-07-10T15:19:13;0.60;;;0.50;;
22904;SDS011;11619;50.140;8.518;2022-07-10T15:21:40;1.17;;;0.80;;
22904;SDS011;11619;50.140;8.518;2022-07-10T15:24:06;1.13;;;0.77;;
22904;SDS011;11619;50.140;8.518;2022-07-10T15:26:33;2.92;;;0.85;;
22904;SDS011;11619;50.140;8.518;2022-07-10T15:28:59;1.40;;;0.70;;